Time;durP1;ratioP1;P1;durP2;ratioP2;P2;SDS_P1;SDS_P2;PMS_P1;PMS_P2;Temp;Humidity;BMP_temperature;BMP_pressure;BME280_temperature;BME280_humidity;BME280_pressure;Samples;Min_cycle;Max_cycle;Signal;HPM_P1;HPM_P2
2022/06/16 00:01:40;;;;;;;6.63;5.03;;;13.80;99.90;;;;;;5078073;28;20387;-52
2022/06/16 00:04:23;;;;;;;7.30;4.95;;;13.70;99.90;;;;;;5079994;28;20082;-54
2022/06/16 00:06:49;;;;;;;8.05;5.15;;;13.70;99.90;;;;;;5069818;28;20054;-55
2022/06/16 00:09:14;;;;;;;9.23;5.30;;;13.70;99.90;;;;;;5068911;28;20029;-52
2022/06/16 00:11:40;;;;;;;15.70;4.30;;;13.60;99.90;;;;;;5069507;28;20028;-52
2022/06/16 00:14:06;;;;;;;17.52;5.45;;;13.60;99.90;;;;;;5070287;28;20032;-53
2022/06/16 00:16:32;;;;;;;19.67;6.25;;;13.60;99.90;;;;;;5085212;28;20066;-53
2022/06/16 00:18:58;;;;;;;11.93;5.43;;;13.50;99.90;;;;;;5090417;28;20024;-52
2022/06/16 00:21:23;;;;;;;12.38;5.53;;;13.50;99.90;;;;;;5087394;28;20044;-54
2022/06/16 00:23:49;;;;;;;11.88;5.28;;;13.50;99.90;;;;;;5085169;28;20035;-54
2022/06/16 00:26:18;;;;;;;9.65;6.40;;;13.40;99.90;;;;;;5091014;28;20034;-52
2022/06/16 00:28:46;;;;;;;19.70;6.13;;;13.40;99.90;;;;;;5080212;28;20036;-50
2022/06/16 00:31:13;;;;;;;10.07;5.55;;;13.40;99.90;;;;;;5071677;28;20052;-55
2022/06/16 00:33:40;;;;;;;7.35;5.55;;;13.40;99.90;;;;;;5070699;28;20112;-53
2022/06/16 00:36:06;;;;;;;6.82;5.20;;;13.30;99.90;;;;;;5079991;28;20028;-55
2022/06/16 00:38:32;;;;;;;7.28;5.78;;;13.30;99.90;;;;;;5091098;28;20032;-52
2022/06/16 00:40:58;;;;;;;7.65;6.07;;;13.20;99.90;;;;;;5089448;28;20044;-54
2022/06/16 00:43:23;;;;;;;13.82;6.18;;;13.20;99.90;;;;;;5086068;28;20025;-54
2022/06/16 00:45:58;;;;;;;9.05;5.97;;;13.20;99.90;;;;;;5069838;28;20041;-52
2022/06/16 00:48:59;;;;;;;8.82;6.60;;;13.20;99.90;;;;;;5082554;28;20032;-54
2022/06/16 00:51:41;;;;;;;6.18;5.57;;;13.10;99.90;;;;;;5088512;28;20054;-53
2022/06/16 00:54:33;;;;;;;12.38;5.80;;;13.10;99.90;;;;;;5071664;28;20364;-51
2022/06/16 00:57:07;;;;;;;9.55;6.07;;;13.10;99.90;;;;;;5071126;28;20525;-54
2022/06/16 00:59:33;;;;;;;12.20;5.65;;;13.00;99.90;;;;;;5086468;28;20118;-55
2022/06/16 01:01:59;;;;;;;11.63;6.07;;;13.00;99.90;;;;;;5078462;28;20028;-53
2022/06/16 01:07:14;;;;;;;16.88;5.50;;;13.00;99.90;;;;;;5090462;28;20038;-50
2022/06/16 01:09:42;;;;;;;11.95;5.72;;;13.00;99.90;;;;;;5089170;28;20491;-56
2022/06/16 01:15:11;;;;;;;14.45;5.93;;;13.00;99.90;;;;;;5090733;28;20063;-51
2022/06/16 01:17:56;;;;;;;7.05;6.07;;;13.00;99.90;;;;;;5089807;28;20048;-53
2022/06/16 01:21:12;;;;;;;13.63;6.70;;;13.00;99.90;;;;;;5086284;28;20652;-52
2022/06/16 01:23:52;;;;;;;15.23;6.65;;;12.90;99.90;;;;;;5051218;28;20217;-52
2022/06/16 01:26:33;;;;;;;17.48;7.72;;;12.90;99.90;;;;;;5068660;28;20107;-53
2022/06/16 01:29:13;;;;;;;12.88;6.18;;;12.90;99.90;;;;;;5074662;28;20040;-53
2022/06/16 01:31:42;;;;;;;8.23;6.25;;;12.90;99.90;;;;;;5075101;28;20040;-54
2022/06/16 01:34:19;;;;;;;9.80;6.88;;;12.90;99.90;;;;;;5085769;28;20113;-53
2022/06/16 01:37:01;;;;;;;16.40;5.47;;;12.90;99.90;;;;;;5074591;28;20021;-51
2022/06/16 01:40:18;;;;;;;13.40;6.32;;;12.90;99.90;;;;;;5077218;28;20101;-53
2022/06/16 01:43:24;;;;;;;7.38;6.40;;;12.90;99.90;;;;;;5061057;28;20063;-55
2022/06/16 01:46:13;;;;;;;16.65;7.80;;;12.90;99.90;;;;;;5081841;28;20043;-52
2022/06/16 01:48:43;;;;;;;13.70;6.65;;;12.80;99.90;;;;;;5078788;28;20393;-54
2022/06/16 01:51:16;;;;;;;17.50;7.88;;;12.90;99.90;;;;;;5094048;28;20024;-51
2022/06/16 01:54:03;;;;;;;9.93;6.68;;;12.80;99.90;;;;;;5078917;28;20058;-52
2022/06/16 01:56:31;;;;;;;12.35;6.60;;;12.80;99.90;;;;;;5071910;28;20392;-52
2022/06/16 01:59:02;;;;;;;12.75;7.00;;;12.80;99.90;;;;;;5074839;28;20033;-51
2022/06/16 02:01:31;;;;;;;20.20;7.35;;;12.80;99.90;;;;;;5073489;28;20082;-51
2022/06/16 02:04:07;;;;;;;16.75;7.25;;;12.80;99.90;;;;;;5088686;28;20030;-53
2022/06/16 02:06:38;;;;;;;8.77;6.68;;;12.80;99.90;;;;;;5073643;28;20119;-52
2022/06/16 02:09:10;;;;;;;15.23;7.10;;;12.70;99.90;;;;;;5085481;28;20044;-52
2022/06/16 02:11:37;;;;;;;12.13;7.25;;;12.60;99.90;;;;;;5090687;28;20257;-52
2022/06/16 02:14:26;;;;;;;14.27;7.30;;;12.60;99.90;;;;;;5075984;28;20024;-54
2022/06/16 02:16:53;;;;;;;13.52;7.47;;;12.60;99.90;;;;;;5074964;28;20053;-53
2022/06/16 02:19:21;;;;;;;11.40;6.93;;;12.60;99.90;;;;;;5091361;28;20032;-55
2022/06/16 02:21:50;;;;;;;11.45;7.25;;;12.60;99.90;;;;;;5091403;28;20107;-51
2022/06/16 02:24:19;;;;;;;18.45;7.70;;;12.60;99.90;;;;;;5091053;28;20032;-53
2022/06/16 02:26:45;;;;;;;24.30;8.02;;;12.50;99.90;;;;;;5071336;28;20032;-51
2022/06/16 02:29:29;;;;;;;12.95;6.78;;;12.50;99.90;;;;;;5072181;28;20016;-53
2022/06/16 02:32:16;;;;;;;15.30;8.38;;;12.60;99.90;;;;;;5072927;28;20420;-54
2022/06/16 02:35:06;;;;;;;14.00;8.27;;;12.60;99.90;;;;;;5073343;28;20028;-54
2022/06/16 02:38:09;;;;;;;16.27;7.57;;;12.60;99.90;;;;;;5073232;28;20021;-54
2022/06/16 02:40:53;;;;;;;15.18;8.02;;;12.60;99.90;;;;;;5071231;28;20055;-52
2022/06/16 02:43:26;;;;;;;16.27;10.48;;;12.60;99.90;;;;;;5083732;28;20574;-51
2022/06/16 02:46:18;;;;;;;12.10;8.05;;;12.50;99.90;;;;;;5092057;28;20032;-54
2022/06/16 02:48:59;;;;;;;9.43;8.32;;;12.50;99.90;;;;;;5075076;28;20043;-54
2022/06/16 02:51:35;;;;;;;22.92;7.57;;;12.50;99.90;;;;;;5072734;28;20342;-51
2022/06/16 02:54:36;;;;;;;10.43;7.30;;;12.50;99.90;;;;;;5071983;28;20024;-55
2022/06/16 02:57:05;;;;;;;14.20;7.38;;;12.50;99.90;;;;;;5067747;28;20488;-51
2022/06/16 02:59:49;;;;;;;16.40;7.70;;;12.40;99.90;;;;;;5072398;28;20035;-52
2022/06/16 03:02:19;;;;;;;16.25;8.13;;;12.40;99.90;;;;;;5083556;28;20473;-53
2022/06/16 03:04:48;;;;;;;12.57;8.75;;;12.40;99.90;;;;;;5092051;28;20055;-54
2022/06/16 03:07:14;;;;;;;18.83;8.40;;;12.30;99.90;;;;;;5090501;28;20103;-54
2022/06/16 03:09:41;;;;;;;13.02;8.35;;;12.40;99.90;;;;;;5091192;28;20055;-51
2022/06/16 03:12:08;;;;;;;14.45;8.20;;;12.40;99.90;;;;;;5089321;28;20114;-52
2022/06/16 03:14:35;;;;;;;14.90;7.97;;;12.40;99.90;;;;;;5088602;28;20081;-53
2022/06/16 03:17:01;;;;;;;15.65;8.13;;;12.40;99.90;;;;;;5090047;28;20016;-54
2022/06/16 03:19:28;;;;;;;10.07;8.00;;;12.50;99.90;;;;;;5072204;28;20040;-55
2022/06/16 03:21:54;;;;;;;10.38;7.85;;;12.50;99.90;;;;;;5071536;28;20035;-53
2022/06/16 03:24:20;;;;;;;13.82;8.23;;;12.40;99.90;;;;;;5091327;28;20048;-51
2022/06/16 03:26:46;;;;;;;16.15;8.10;;;12.50;99.90;;;;;;5089172;28;20447;-52
2022/06/16 03:29:13;;;;;;;14.60;8.00;;;12.50;99.90;;;;;;5073443;28;20060;-52
2022/06/16 03:31:38;;;;;;;13.27;8.18;;;12.50;99.90;;;;;;5071143;28;20059;-51
2022/06/16 03:34:04;;;;;;;9.82;7.88;;;12.50;99.90;;;;;;5070780;28;20060;-50
2022/06/16 03:36:30;;;;;;;23.83;8.45;;;12.50;99.90;;;;;;5070856;28;20013;-52
2022/06/16 03:38:57;;;;;;;18.77;9.43;;;12.50;99.90;;;;;;5083968;28;20379;-51
2022/06/16 03:41:23;;;;;;;11.90;8.48;;;12.60;99.90;;;;;;5090535;28;20032;-51
2022/06/16 03:43:48;;;;;;;12.57;8.30;;;12.70;99.90;;;;;;5089748;28;20035;-53
2022/06/16 03:46:16;;;;;;;15.23;8.25;;;12.70;99.90;;;;;;5088393;28;20054;-53
2022/06/16 03:48:42;;;;;;;11.68;8.55;;;12.80;99.90;;;;;;5080797;28;20025;-51
2022/06/16 03:51:09;;;;;;;15.02;9.07;;;12.90;99.90;;;;;;5069237;28;20052;-53
2022/06/16 03:53:35;;;;;;;13.38;7.93;;;12.90;99.90;;;;;;5069616;28;20024;-52
2022/06/16 03:56:01;;;;;;;17.45;8.10;;;13.00;99.90;;;;;;5069184;28;20523;-54
2022/06/16 03:58:27;;;;;;;10.05;8.32;;;13.10;99.90;;;;;;5079882;28;20043;-52
2022/06/16 04:00:52;;;;;;;19.70;7.50;;;13.10;99.90;;;;;;5088168;28;20066;-52
2022/06/16 04:06:03;;;;;;;27.63;9.20;;;13.30;99.90;;;;;;5069945;28;20039;-52
2022/06/16 04:08:28;;;;;;;15.27;8.13;;;13.30;99.90;;;;;;5070969;28;20399;-55
2022/06/16 04:10:55;;;;;;;21.27;8.73;;;13.40;99.90;;;;;;5070858;28;20687;-53
2022/06/16 04:13:21;;;;;;;12.23;8.25;;;13.40;99.90;;;;;;5080758;28;20061;-52
2022/06/16 04:15:46;;;;;;;23.70;9.18;;;13.50;99.90;;;;;;5089948;28;20483;-51
2022/06/16 04:18:12;;;;;;;12.27;8.63;;;13.50;99.90;;;;;;5083499;28;20035;-51
2022/06/16 04:20:38;;;;;;;13.15;9.50;;;13.70;99.90;;;;;;5070340;28;20051;-55
2022/06/16 04:23:06;;;;;;;18.88;9.32;;;13.80;99.90;;;;;;5069905;28;20468;-53
2022/06/16 04:25:33;;;;;;;12.48;8.23;;;13.90;99.90;;;;;;5069189;28;20050;-52
2022/06/16 04:28:00;;;;;;;12.50;9.32;;;14.20;99.90;;;;;;5077545;28;20024;-52
2022/06/16 04:30:26;;;;;;;18.23;8.90;;;14.30;99.90;;;;;;5089413;28;20024;-51
2022/06/16 04:32:52;;;;;;;9.20;8.23;;;14.50;99.90;;;;;;5089524;28;20069;-51
2022/06/16 04:35:18;;;;;;;17.85;8.88;;;14.60;99.90;;;;;;5088939;28;20506;-52
2022/06/16 04:37:44;;;;;;;12.38;9.07;;;14.70;99.90;;;;;;5086863;28;20678;-50
2022/06/16 04:40:10;;;;;;;13.35;8.40;;;14.80;99.90;;;;;;5069689;28;20044;-54
2022/06/16 04:42:36;;;;;;;12.35;8.57;;;14.80;99.90;;;;;;5070179;28;20100;-51
2022/06/16 04:45:02;;;;;;;12.23;7.20;;;15.00;99.90;;;;;;5072328;28;20128;-52
2022/06/16 04:47:28;;;;;;;15.25;7.88;;;15.20;99.90;;;;;;5082052;28;20026;-52
2022/06/16 04:49:53;;;;;;;11.75;7.95;;;15.40;99.90;;;;;;5071778;28;20051;-53
2022/06/16 04:52:19;;;;;;;10.05;7.78;;;15.50;99.90;;;;;;5082042;28;20051;-55
2022/06/16 04:54:46;;;;;;;9.90;7.63;;;15.60;99.90;;;;;;5088909;28;20077;-51
2022/06/16 04:57:12;;;;;;;12.40;8.07;;;15.70;99.90;;;;;;5090193;28;20016;-52
2022/06/16 04:59:38;;;;;;;8.48;7.25;;;15.70;99.90;;;;;;5089636;28;20016;-53
2022/06/16 05:02:04;;;;;;;9.55;7.50;;;15.80;99.90;;;;;;5090729;28;20111;-53
2022/06/16 05:04:30;;;;;;;9.35;7.75;;;15.90;99.90;;;;;;5074909;28;20028;-51
2022/06/16 05:06:56;;;;;;;10.02;7.82;;;16.00;99.90;;;;;;5074238;28;20024;-55
2022/06/16 05:09:23;;;;;;;17.20;8.00;;;16.00;99.90;;;;;;5074119;28;20097;-52
2022/06/16 05:11:49;;;;;;;14.32;7.97;;;16.00;99.90;;;;;;5073136;28;20468;-52
2022/06/16 05:14:15;;;;;;;12.55;8.57;;;16.00;99.90;;;;;;5092023;28;20028;-51
2022/06/16 05:16:41;;;;;;;13.60;8.48;;;16.20;99.90;;;;;;5094595;28;20434;-55
2022/06/16 05:19:07;;;;;;;11.90;8.38;;;16.30;99.90;;;;;;5076431;28;20060;-52
2022/06/16 05:21:32;;;;;;;14.20;8.35;;;16.40;99.90;;;;;;5073522;28;20033;-51
2022/06/16 05:23:58;;;;;;;13.20;7.40;;;16.60;99.90;;;;;;5072421;28;20025;-51
2022/06/16 05:26:24;;;;;;;9.20;7.70;;;16.80;99.90;;;;;;5072123;28;20029;-51
2022/06/16 05:28:50;;;;;;;7.22;6.50;;;17.10;99.90;;;;;;5086302;28;20111;-53
2022/06/16 05:31:16;;;;;;;9.63;7.20;;;17.40;99.90;;;;;;5091443;28;20055;-54
2022/06/16 05:33:41;;;;;;;12.77;7.70;;;17.60;99.90;;;;;;5073334;28;20056;-51
2022/06/16 05:36:12;;;;;;;12.13;7.80;;;17.70;99.90;;;;;;5072304;28;20247;-53
2022/06/16 05:38:39;;;;;;;7.95;7.15;;;17.70;99.90;;;;;;5082811;28;20024;-53
2022/06/16 05:41:10;;;;;;;11.48;6.95;;;17.80;99.90;;;;;;5093723;28;20036;-54
2022/06/16 05:43:36;;;;;;;10.48;7.20;;;18.00;99.90;;;;;;5087996;28;20036;-54
2022/06/16 05:46:02;;;;;;;12.88;6.70;;;18.00;99.90;;;;;;5093056;28;20020;-54
2022/06/16 05:48:28;;;;;;;9.43;7.60;;;18.00;99.90;;;;;;5081442;28;20036;-52
2022/06/16 05:50:54;;;;;;;12.38;7.32;;;18.00;99.90;;;;;;5073015;28;20020;-52
2022/06/16 05:53:20;;;;;;;9.80;8.45;;;18.10;99.90;;;;;;5071278;28;20120;-54
2022/06/16 05:55:46;;;;;;;13.43;8.45;;;18.20;99.90;;;;;;5073062;28;20131;-51
2022/06/16 05:58:12;;;;;;;15.50;8.27;;;18.40;99.90;;;;;;5073799;28;20403;-56
2022/06/16 06:00:38;;;;;;;9.43;7.55;;;18.50;99.90;;;;;;5073539;28;20032;-55
2022/06/16 06:03:04;;;;;;;9.52;7.60;;;18.70;99.90;;;;;;5078270;28;20077;-52
2022/06/16 06:05:30;;;;;;;16.63;8.32;;;18.90;99.90;;;;;;5091391;28;20495;-52
2022/06/16 06:16:55;;;;;;;10.82;7.38;;;19.80;99.90;;;;;;5093670;28;20034;-57
2022/06/16 06:19:23;;;;;;;13.35;7.07;;;20.10;99.90;;;;;;5093210;28;20066;-57
2022/06/16 06:24:47;;;;;;;8.05;6.40;;;20.70;99.90;;;;;;5068286;28;20128;-55
2022/06/16 06:27:39;;;;;;;9.48;7.78;;;20.70;99.90;;;;;;5073112;28;20472;-56
2022/06/16 06:30:08;;;;;;;7.53;5.95;;;20.60;99.90;;;;;;5074229;28;20117;-57
2022/06/16 06:32:33;;;;;;;11.93;6.57;;;20.50;99.90;;;;;;5072686;28;20012;-56
2022/06/16 06:34:59;;;;;;;8.90;5.85;;;20.50;99.90;;;;;;5085989;28;20032;-55
2022/06/16 06:37:26;;;;;;;13.73;6.45;;;20.50;99.90;;;;;;5091647;28;20039;-56
2022/06/16 06:39:53;;;;;;;9.23;6.30;;;20.60;99.90;;;;;;5072312;28;20142;-53
2022/06/16 06:42:19;;;;;;;8.57;6.13;;;20.60;99.90;;;;;;5077115;28;20128;-53
2022/06/16 06:44:45;;;;;;;9.93;6.75;;;20.80;99.90;;;;;;5080843;28;20028;-54
2022/06/16 06:47:29;;;;;;;9.20;5.53;;;20.90;99.90;;;;;;5088947;28;20024;-56
2022/06/16 06:49:55;;;;;;;10.35;6.43;;;21.10;99.90;;;;;;5092623;28;20024;-55
2022/06/16 06:52:21;;;;;;;9.57;6.45;;;21.20;99.90;;;;;;5076869;28;20110;-55
2022/06/16 06:54:47;;;;;;;12.00;6.90;;;21.30;99.90;;;;;;5072792;28;20020;-54
2022/06/16 06:57:20;;;;;;;12.07;6.95;;;21.20;99.90;;;;;;5083926;28;20039;-56
2022/06/16 06:59:46;;;;;;;8.02;7.07;;;21.20;99.90;;;;;;5093202;28;20777;-56
2022/06/16 07:02:13;;;;;;;9.82;7.32;;;21.20;99.90;;;;;;5090598;28;20118;-57
2022/06/16 07:04:40;;;;;;;12.20;7.63;;;21.30;99.90;;;;;;5088633;28;20492;-53
2022/06/16 07:07:08;;;;;;;9.32;6.63;;;21.40;99.90;;;;;;5091126;28;20028;-56
2022/06/16 07:09:34;;;;;;;11.57;7.32;;;21.50;99.90;;;;;;5091474;28;20039;-55
2022/06/16 07:12:00;;;;;;;9.15;7.00;;;21.80;99.90;;;;;;5091434;28;20020;-56
2022/06/16 07:14:26;;;;;;;9.85;6.10;;;21.90;99.90;;;;;;5090009;28;20059;-55
2022/06/16 07:16:52;;;;;;;8.63;5.32;;;21.90;99.90;;;;;;5091460;28;20021;-55
2022/06/16 07:19:18;;;;;;;8.70;5.03;;;21.80;99.90;;;;;;5076137;28;20035;-55
2022/06/16 07:21:44;;;;;;;10.27;5.05;;;21.80;99.90;;;;;;5071165;28;20052;-55
2022/06/16 07:24:10;;;;;;;9.30;5.47;;;22.00;99.90;;;;;;5068803;28;20379;-57
2022/06/16 07:26:36;;;;;;;6.00;5.22;;;22.20;99.90;;;;;;5070969;28;20104;-57
2022/06/16 07:29:01;;;;;;;9.07;6.03;;;22.60;99.90;;;;;;5068344;28;20028;-56
2022/06/16 07:31:28;;;;;;;6.18;4.97;;;22.70;99.90;;;;;;5070044;28;20037;-56
2022/06/16 07:33:55;;;;;;;9.27;5.00;;;23.10;99.60;;;;;;5069627;28;20066;-55
2022/06/16 07:36:21;;;;;;;11.23;5.43;;;23.30;99.40;;;;;;5069867;28;20027;-57
2022/06/16 07:38:47;;;;;;;7.18;5.47;;;23.50;99.00;;;;;;5070705;28;20032;-56
2022/06/16 07:41:31;;;;;;;6.45;4.47;;;23.60;99.00;;;;;;5086260;28;20068;-56
2022/06/16 07:44:00;;;;;;;9.32;4.68;;;23.70;97.40;;;;;;5090837;28;20028;-56
2022/06/16 07:46:26;;;;;;;8.93;4.75;;;23.60;97.40;;;;;;5090883;28;20118;-56
2022/06/16 07:48:53;;;;;;;6.65;5.15;;;23.80;96.90;;;;;;5090881;28;20058;-56
2022/06/16 07:51:19;;;;;;;9.48;3.97;;;24.00;98.50;;;;;;5088949;28;20035;-55
2022/06/16 07:53:45;;;;;;;7.40;5.20;;;24.70;98.50;;;;;;5090552;28;20020;-55
2022/06/16 07:56:11;;;;;;;7.82;4.75;;;25.00;96.40;;;;;;5089752;28;20466;-57
2022/06/16 07:58:39;;;;;;;6.93;6.00;;;25.30;96.70;;;;;;5090681;28;20060;-55
2022/06/16 08:01:07;;;;;;;7.25;5.15;;;25.10;95.80;;;;;;5087051;28;20443;-57
2022/06/16 08:03:36;;;;;;;7.55;5.50;;;25.30;96.10;;;;;;5070765;28;20382;-57
2022/06/16 08:06:06;;;;;;;6.57;5.20;;;25.10;97.50;;;;;;5070455;28;20056;-55
2022/06/16 08:08:32;;;;;;;9.98;5.63;;;24.70;97.10;;;;;;5071180;28;20523;-52
2022/06/16 08:10:58;;;;;;;4.97;4.47;;;24.10;97.50;;;;;;5070589;28;20033;-55
2022/06/16 08:13:26;;;;;;;6.47;4.75;;;23.40;99.90;;;;;;5070429;28;20044;-55
2022/06/16 08:15:53;;;;;;;11.30;6.32;;;22.90;99.90;;;;;;5071429;28;20389;-56
2022/06/16 08:18:22;;;;;;;11.95;6.63;;;22.70;99.90;;;;;;5070333;28;20033;-55
2022/06/16 08:20:48;;;;;;;7.78;6.20;;;22.50;99.90;;;;;;5080336;28;20025;-55
2022/06/16 08:23:14;;;;;;;11.05;5.70;;;22.30;99.90;;;;;;5089043;28;20055;-56
2022/06/16 08:25:44;;;;;;;9.85;5.57;;;22.50;99.90;;;;;;5090684;28;20062;-54
2022/06/16 08:28:12;;;;;;;6.95;5.95;;;22.40;99.90;;;;;;5090367;28;20028;-56
2022/06/16 08:30:41;;;;;;;6.05;5.40;;;22.70;99.90;;;;;;5090432;28;20372;-57
2022/06/16 08:33:09;;;;;;;10.35;5.10;;;23.00;99.90;;;;;;5089944;28;20123;-56
2022/06/16 08:35:36;;;;;;;8.45;5.22;;;23.30;99.90;;;;;;5078623;28;20113;-57
2022/06/16 08:38:02;;;;;;;14.93;6.00;;;23.40;99.50;;;;;;5073249;28;20024;-56
2022/06/16 08:40:29;;;;;;;9.13;4.93;;;23.70;99.30;;;;;;5074099;28;20041;-57
2022/06/16 08:43:03;;;;;;;6.68;4.78;;;23.90;99.80;;;;;;5074219;28;20013;-56
2022/06/16 08:45:34;;;;;;;6.82;4.90;;;24.50;99.80;;;;;;5073971;28;20024;-54
2022/06/16 08:48:17;;;;;;;10.63;4.95;;;24.90;99.70;;;;;;5074418;28;20055;-55
2022/06/16 08:50:46;;;;;;;9.77;4.50;;;24.90;98.70;;;;;;5087470;28;20120;-58
2022/06/16 08:53:20;;;;;;;6.78;4.35;;;25.10;98.30;;;;;;5094265;28;20063;-55
2022/06/16 08:56:14;;;;;;;8.80;3.78;;;25.30;96.50;;;;;;5080867;28;20029;-56
2022/06/16 08:58:46;;;;;;;3.88;2.47;;;25.60;96.80;;;;;;5073787;28;20043;-56
2022/06/16 09:01:22;;;;;;;4.82;3.17;;;25.50;93.90;;;;;;5073880;28;20387;-55
2022/06/16 09:04:09;;;;;;;9.38;2.72;;;25.70;92.90;;;;;;5073846;28;20027;-57
2022/06/16 09:06:37;;;;;;;19.10;3.97;;;25.90;93.60;;;;;;5073836;28;20028;-55
2022/06/16 09:10:14;;;;;;;7.45;3.08;;;25.80;94.40;;;;;;5075674;28;20032;-56
2022/06/16 09:12:45;;;;;;;4.50;2.55;;;25.80;96.20;;;;;;5093803;28;20027;-56
2022/06/16 09:15:41;;;;;;;4.65;2.90;;;25.70;93.80;;;;;;5092288;28;20028;-56
2022/06/16 09:18:07;;;;;;;5.50;2.35;;;25.90;94.50;;;;;;5092481;28;20534;-53
2022/06/16 09:20:57;;;;;;;4.78;2.38;;;26.20;93.20;;;;;;5093564;28;20118;-57
2022/06/16 09:23:41;;;;;;;6.15;2.50;;;26.30;91.70;;;;;;5093476;28;20557;-55
2022/06/16 09:26:19;;;;;;;6.63;2.97;;;26.50;93.10;;;;;;5073253;28;20024;-56
2022/06/16 09:28:54;;;;;;;4.07;2.88;;;26.70;86.70;;;;;;5073149;28;20070;-56
2022/06/16 09:31:40;;;;;;;8.32;2.65;;;26.90;84.10;;;;;;5073075;28;20876;-56
2022/06/16 09:34:22;;;;;;;2.90;2.42;;;27.10;83.00;;;;;;5061540;28;20128;-54
2022/06/16 09:36:56;;;;;;;7.25;2.30;;;27.30;79.70;;;;;;5073086;28;20392;-57
2022/06/16 09:39:28;;;;;;;9.40;2.65;;;27.50;79.20;;;;;;5081522;28;20669;-56
2022/06/16 09:45:08;;;;;;;4.60;2.60;;;27.60;78.10;;;;;;5091945;28;20074;-53
2022/06/16 09:47:59;;;;;;;8.52;3.20;;;27.70;79.90;;;;;;5091530;28;20020;-55
2022/06/16 09:50:41;;;;;;;10.77;3.28;;;27.70;74.50;;;;;;5091721;28;20020;-55
2022/06/16 09:53:16;;;;;;;8.65;2.85;;;27.80;78.30;;;;;;5091476;28;20471;-57
2022/06/16 09:55:51;;;;;;;5.53;2.83;;;28.30;80.50;;;;;;5091949;28;20047;-54
2022/06/16 09:58:34;;;;;;;9.88;2.97;;;28.70;75.10;;;;;;5091712;28;20409;-54
2022/06/16 10:01:06;;;;;;;8.45;3.15;;;29.00;78.10;;;;;;5091824;28;20020;-52
2022/06/16 10:03:37;;;;;;;8.57;3.25;;;29.30;77.40;;;;;;5091772;28;20391;-55
2022/06/16 10:06:32;;;;;;;5.75;3.13;;;29.50;73.70;;;;;;5091657;28;20024;-56
2022/06/16 10:09:04;;;;;;;5.35;3.15;;;29.20;74.00;;;;;;5070699;28;20044;-56
2022/06/16 10:11:47;;;;;;;15.63;3.67;;;29.50;79.70;;;;;;5071540;28;20039;-56
2022/06/16 10:14:21;;;;;;;;;;;29.20;75.50;;;;;;5071827;28;20044;-56
2022/06/16 10:16:56;;;;;;;5.68;3.25;;;29.30;77.10;;;;;;5071441;28;20034;-54
2022/06/16 10:19:26;;;;;;;10.20;3.50;;;29.30;78.00;;;;;;5071204;28;20419;-54
2022/06/16 10:21:52;;;;;;;5.47;3.75;;;28.90;76.60;;;;;;5071265;28;20089;-54
2022/06/16 10:24:23;;;;;;;4.65;2.90;;;29.20;77.30;;;;;;5084785;28;20024;-55
2022/06/16 10:26:49;;;;;;;6.38;3.50;;;29.60;75.20;;;;;;5091386;28;20451;-55
2022/06/16 10:29:25;;;;;;;13.38;3.58;;;29.60;77.90;;;;;;5091291;28;20035;-54
2022/06/16 10:31:53;;;;;;;7.53;2.63;;;29.80;77.60;;;;;;5091320;28;20027;-55
2022/06/16 10:34:38;;;;;;;10.73;3.35;;;29.70;78.20;;;;;;5084300;28;20491;-55
2022/06/16 10:37:14;;;;;;;7.85;3.17;;;29.50;77.10;;;;;;5071089;28;20353;-54
2022/06/16 10:39:46;;;;;;;10.45;3.10;;;29.60;73.30;;;;;;5031002;28;1151305;-55
2022/06/16 10:42:18;;;;;;;7.50;3.22;;;29.50;72.90;;;;;;5071984;28;20399;-56
2022/06/16 10:45:11;;;;;;;12.35;3.60;;;30.20;72.60;;;;;;5072105;28;20447;-56
2022/06/16 10:47:40;;;;;;;;;;;30.10;74.50;;;;;;5073034;28;20065;-54
2022/06/16 10:50:14;;;;;;;11.13;3.42;;;29.60;72.40;;;;;;5071520;28;20377;-53
2022/06/16 10:52:46;;;;;;;10.10;3.88;;;29.30;72.60;;;;;;5071642;28;20047;-56
2022/06/16 10:55:12;;;;;;;9.52;3.83;;;29.20;71.50;;;;;;5071453;28;20320;-55
2022/06/16 10:57:48;;;;;;;14.27;4.00;;;29.20;75.30;;;;;;5071598;28;20020;-54
2022/06/16 11:00:20;;;;;;;7.47;4.28;;;28.40;74.10;;;;;;5070731;28;20755;-54
2022/06/16 11:02:58;;;;;;;13.52;3.88;;;28.20;76.70;;;;;;5084429;28;20471;-54
2022/06/16 11:05:25;;;;;;;10.70;3.83;;;28.10;77.60;;;;;;5091239;28;20023;-54
2022/06/16 11:07:52;;;;;;;9.35;3.97;;;27.60;80.10;;;;;;5090975;28;20020;-55
2022/06/16 11:10:37;;;;;;;8.15;3.53;;;27.20;81.40;;;;;;5091246;28;20157;-55
2022/06/16 11:13:04;;;;;;;10.23;3.78;;;27.30;80.90;;;;;;5091357;28;20379;-56
2022/06/16 11:15:40;;;;;;;4.97;3.38;;;27.30;80.80;;;;;;5091585;28;20023;-56
2022/06/16 11:18:11;;;;;;;9.75;3.92;;;27.60;80.90;;;;;;5091608;28;20024;-56
2022/06/16 11:20:39;;;;;;;8.23;3.30;;;27.70;80.10;;;;;;5089597;28;20024;-55
2022/06/16 11:23:33;;;;;;;5.63;3.88;;;27.90;79.80;;;;;;5091224;28;20514;-55
2022/06/16 11:26:19;;;;;;;13.13;4.20;;;28.20;80.70;;;;;;5088844;28;20487;-56
2022/06/16 11:28:50;;;;;;;12.18;4.25;;;28.00;83.30;;;;;;5091168;28;20399;-55
2022/06/16 11:31:44;;;;;;;12.32;4.30;;;27.60;79.40;;;;;;5091207;28;20027;-56
2022/06/16 11:34:23;;;;;;;9.13;4.47;;;27.60;80.10;;;;;;5091085;28;20080;-56
2022/06/16 11:36:55;;;;;;;9.57;4.85;;;27.20;83.60;;;;;;5073327;28;20027;-55
2022/06/16 11:39:42;;;;;;;13.57;5.18;;;27.20;80.50;;;;;;5070279;28;20057;-56
2022/06/16 11:42:19;;;;;;;15.93;4.25;;;26.70;81.50;;;;;;5070712;28;20028;-57
2022/06/16 11:45:28;;;;;;;14.18;4.07;;;26.70;82.60;;;;;;5069456;28;20032;-55
2022/06/16 11:47:54;;;;;;;17.92;4.20;;;27.10;82.30;;;;;;5070090;28;20040;-56
2022/06/16 11:50:35;;;;;;;12.60;4.30;;;27.60;82.90;;;;;;5070733;28;20098;-55
2022/06/16 11:53:22;;;;;;;11.23;3.97;;;27.50;78.20;;;;;;5090583;28;20278;-57
2022/06/16 11:56:24;;;;;;;16.00;4.13;;;27.40;77.10;;;;;;5089552;28;20031;-57
2022/06/16 11:59:17;;;;;;;8.00;2.80;;;26.90;77.10;;;;;;5090884;28;20028;-57
2022/06/16 12:01:46;;;;;;;4.35;2.88;;;27.50;74.20;;;;;;5090829;28;20024;-56
2022/06/16 12:04:41;;;;;;;13.60;3.72;;;28.10;72.90;;;;;;5090520;28;20544;-57
2022/06/16 12:07:26;;;;;;;9.65;3.35;;;28.50;69.40;;;;;;5072242;28;20484;-55
2022/06/16 12:10:12;;;;;;;15.50;3.13;;;29.00;67.50;;;;;;5070106;28;20027;-56
2022/06/16 12:12:50;;;;;;;5.10;2.50;;;29.80;67.70;;;;;;5070225;28;20114;-56
2022/06/16 12:15:34;;;;;;;9.10;3.00;;;29.90;65.10;;;;;;5070208;28;20519;-55
2022/06/16 12:18:08;;;;;;;11.05;2.63;;;29.90;64.30;;;;;;5070288;28;20124;-56
2022/06/16 12:21:12;;;;;;;7.15;2.63;;;30.90;60.00;;;;;;5076749;28;20762;-56
2022/06/16 12:23:51;;;;;;;6.47;2.88;;;29.90;60.10;;;;;;5090156;28;20020;-57
2022/06/16 12:26:28;;;;;;;9.98;3.03;;;29.60;60.90;;;;;;5086309;28;20414;-56
2022/06/16 12:29:05;;;;;;;7.75;2.70;;;29.00;61.50;;;;;;5085275;28;20025;-57
2022/06/16 12:32:05;;;;;;;10.02;3.28;;;28.40;62.70;;;;;;5069602;28;20075;-56
2022/06/16 12:34:39;;;;;;;7.35;2.72;;;28.20;62.10;;;;;;5070013;28;20028;-50
2022/06/16 12:37:15;;;;;;;9.57;2.85;;;27.80;63.50;;;;;;5070716;28;20017;-54
2022/06/16 12:40:10;;;;;;;9.15;3.03;;;28.10;65.30;;;;;;5070942;28;20048;-53
2022/06/16 12:42:42;;;;;;;5.03;3.28;;;28.90;64.30;;;;;;5070879;28;20032;-53
2022/06/16 12:45:51;;;;;;;10.45;3.25;;;29.90;63.30;;;;;;5069369;28;20021;-57
2022/06/16 12:48:26;;;;;;;9.82;3.03;;;31.10;62.50;;;;;;5068557;28;20484;-54
2022/06/16 12:50:58;;;;;;;7.53;2.83;;;31.20;61.10;;;;;;5068106;28;20077;-55
2022/06/16 12:53:27;;;;;;;;;;;31.00;62.30;;;;;;5068235;28;20017;-55
2022/06/16 12:56:03;;;;;;;6.80;3.65;;;30.30;63.60;;;;;;5078135;28;20354;-56
2022/06/16 12:58:37;;;;;;;10.38;4.32;;;30.60;64.90;;;;;;5087281;28;20593;-57
2022/06/16 13:01:11;;;;;;;9.77;3.25;;;29.40;67.90;;;;;;5087175;28;20028;-56
2022/06/16 13:03:45;;;;;;;13.80;3.65;;;30.10;72.60;;;;;;5088135;28;20024;-56
2022/06/16 13:06:12;;;;;;;12.35;4.47;;;30.70;70.80;;;;;;5085587;28;20032;-57
2022/06/16 13:08:43;;;;;;;8.68;3.20;;;31.30;66.30;;;;;;5087812;28;20032;-55
2022/06/16 13:11:15;;;;;;;10.73;3.80;;;31.50;66.30;;;;;;5073933;28;20578;-57
2022/06/16 13:14:00;;;;;;;8.25;3.20;;;32.30;67.30;;;;;;5069876;28;20395;-55
2022/06/16 13:16:29;;;;;;;18.60;4.30;;;32.80;68.70;;;;;;5069974;28;20017;-56
2022/06/16 13:19:00;;;;;;;7.82;3.53;;;31.60;64.60;;;;;;5069869;28;20023;-55
2022/06/16 13:21:41;;;;;;;8.43;4.10;;;33.10;65.20;;;;;;5069686;28;20021;-57
2022/06/16 13:24:21;;;;;;;12.00;3.90;;;33.20;63.90;;;;;;5073257;28;20016;-54
2022/06/16 13:27:09;;;;;;;5.50;3.17;;;33.70;62.20;;;;;;5073443;28;20025;-55
2022/06/16 13:29:50;;;;;;;7.00;3.17;;;33.90;61.90;;;;;;5074598;28;20031;-56
2022/06/16 13:33:00;;;;;;;12.63;2.90;;;33.70;60.80;;;;;;5074588;28;20035;-55
2022/06/16 13:35:48;;;;;;;19.65;3.47;;;32.50;58.80;;;;;;5092026;28;20044;-54
2022/06/16 13:38:14;;;;;;;6.30;2.75;;;31.80;61.60;;;;;;5087984;28;20024;-56